Time;durP1;ratioP1;P1;durP2;ratioP2;P2;SDS_P1;SDS_P2;PMS_P1;PMS_P2;Temp;Humidity;BMP_temperature;BMP_pressure;BME280_temperature;BME280_humidity;BME280_pressure;Samples;Min_cycle;Max_cycle;Signal;HPM_P1;HPM_P2
2022/12/22 03:26:37;;;;;;;;;3.00;2.00;;;;;;;;5041597;28;61792;-75
2022/12/22 03:29:03;;;;;;;;;4.00;0.50;;;;;;;;5040649;28;61861;-76
2022/12/22 03:31:28;;;;;;;;;1.00;1.00;;;;;;;;5041670;28;61940;-75
2022/12/22 03:33:53;;;;;;;;;1.00;1.00;;;;;;;;5043333;28;62063;-75
2022/12/22 03:36:18;;;;;;;;;2.00;1.00;;;;;;;;5044724;28;61921;-75
2022/12/22 03:38:44;;;;;;;;;1.00;1.00;;;;;;;;5044165;28;61908;-75
2022/12/22 03:46:28;;;;;;;;;2.50;1.00;;;;;;;;5044573;28;61876;-75
2022/12/22 03:46:38;;;;;;;;;2.00;1.75;;;;;;;;5044661;28;62019;-75
2022/12/22 03:49:09;;;;;;;;;0.50;0.50;;;;;;;;5043498;28;62540;-75
2022/12/22 03:51:44;;;;;;;;;0.00;0.00;;;;;;;;5044513;28;61739;-75
2022/12/22 03:54:11;;;;;;;;;0.25;0.25;;;;;;;;5044420;28;61778;-75
2022/12/22 03:56:36;;;;;;;;;0.00;0.00;;;;;;;;5043173;28;61722;-76
2022/12/22 03:59:02;;;;;;;;;1.00;1.00;;;;;;;;5043536;28;62044;-76
2022/12/22 04:01:27;;;;;;;;;0.00;0.00;;;;;;;;5044227;28;61927;-75
2022/12/22 04:03:53;;;;;;;;;4.00;0.50;;;;;;;;5044282;28;61667;-75
2022/12/22 04:06:18;;;;;;;;;0.00;0.00;;;;;;;;5043009;28;62259;-76
2022/12/22 04:08:44;;;;;;;;;3.00;1.00;;;;;;;;5041624;28;64801;-75
2022/12/22 04:13:55;;;;;;;;;4.75;1.00;;;;;;;;5044240;28;62012;-75
2022/12/22 04:16:20;;;;;;;;;2.00;1.00;;;;;;;;5042612;28;61837;-75
2022/12/22 04:18:45;;;;;;;;;2.25;0.50;;;;;;;;5042925;28;62054;-76
2022/12/22 04:21:10;;;;;;;;;1.75;0.75;;;;;;;;5044118;28;61951;-75
2022/12/22 04:23:36;;;;;;;;;1.00;1.00;;;;;;;;5043691;28;61990;-75
2022/12/22 04:26:01;;;;;;;;;1.00;1.00;;;;;;;;5044124;28;61769;-75
2022/12/22 04:28:26;;;;;;;;;1.00;0.00;;;;;;;;5043094;28;62556;-75
2022/12/22 04:30:51;;;;;;;;;3.25;1.75;;;;;;;;5043560;28;61909;-76
2022/12/22 04:33:17;;;;;;;;;3.00;0.00;;;;;;;;5042266;28;62094;-75
2022/12/22 04:35:42;;;;;;;;;0.00;0.00;;;;;;;;5042575;28;61955;-75
2022/12/22 04:38:07;;;;;;;;;0.00;0.00;;;;;;;;5043277;28;61837;-75
2022/12/22 04:40:33;;;;;;;;;2.00;0.00;;;;;;;;5042189;28;61782;-75
2022/12/22 04:42:58;;;;;;;;;0.00;0.00;;;;;;;;5043235;28;62098;-75
2022/12/22 04:45:23;;;;;;;;;1.00;1.00;;;;;;;;5043774;28;62062;-76
2022/12/22 04:47:48;;;;;;;;;1.00;0.00;;;;;;;;5042802;28;61796;-75
2022/12/22 04:50:14;;;;;;;;;0.00;0.00;;;;;;;;5038644;28;62010;-75
2022/12/22 04:52:39;;;;;;;;;0.00;0.00;;;;;;;;5023293;28;62061;-75
2022/12/22 04:55:05;;;;;;;;;0.00;0.00;;;;;;;;5023824;28;61839;-75
2022/12/22 04:57:30;;;;;;;;;0.00;0.00;;;;;;;;5022719;28;62123;-75
2022/12/22 04:59:56;;;;;;;;;0.00;0.00;;;;;;;;5023265;28;61707;-75
2022/12/22 05:02:21;;;;;;;;;0.25;0.25;;;;;;;;5038707;28;61956;-75
2022/12/22 05:04:46;;;;;;;;;1.25;0.00;;;;;;;;5023356;28;61930;-75
2022/12/22 05:07:12;;;;;;;;;0.75;0.00;;;;;;;;5022705;28;61860;-75
2022/12/22 05:09:37;;;;;;;;;1.25;0.00;;;;;;;;5035650;28;61921;-75
2022/12/22 05:12:53;;;;;;;;;0.00;0.00;;;;;;;;5043102;28;61841;-75
2022/12/22 05:14:48;;;;;;;;;0.00;0.00;;;;;;;;5042698;28;61932;-76
2022/12/22 05:17:13;;;;;;;;;0.00;0.00;;;;;;;;5041332;28;63639;-75
2022/12/22 05:19:38;;;;;;;;;0.00;0.00;;;;;;;;5041189;28;61924;-75
2022/12/22 05:22:04;;;;;;;;;0.00;0.00;;;;;;;;5042987;28;61873;-75
2022/12/22 05:24:29;;;;;;;;;0.00;0.00;;;;;;;;5043321;28;61695;-75
2022/12/22 05:26:54;;;;;;;;;1.00;0.00;;;;;;;;5042266;28;61884;-75
2022/12/22 05:29:19;;;;;;;;;0.00;0.00;;;;;;;;5041112;28;62000;-76
2022/12/22 05:31:45;;;;;;;;;0.00;0.00;;;;;;;;5041496;28;61980;-75
2022/12/22 05:34:10;;;;;;;;;0.00;0.00;;;;;;;;5042993;28;61766;-75
2022/12/22 05:36:35;;;;;;;;;0.00;0.00;;;;;;;;5040970;28;64006;-75
2022/12/22 05:39:00;;;;;;;;;0.00;0.00;;;;;;;;5041549;28;61848;-74
2022/12/22 05:41:26;;;;;;;;;0.00;0.00;;;;;;;;5042695;28;61768;-75
2022/12/22 05:43:51;;;;;;;;;0.00;0.00;;;;;;;;5040969;28;61846;-75
2022/12/22 05:46:17;;;;;;;;;0.50;0.00;;;;;;;;5040774;28;64683;-75
2022/12/22 05:48:48;;;;;;;;;0.00;0.00;;;;;;;;5042204;28;61817;-75
2022/12/22 05:51:17;;;;;;;;;0.00;0.00;;;;;;;;5042904;28;61813;-75
2022/12/22 05:53:43;;;;;;;;;0.00;0.00;;;;;;;;5041644;28;61813;-75
2022/12/22 05:56:08;;;;;;;;;0.00;0.00;;;;;;;;5041962;28;61763;-75
2022/12/22 05:58:33;;;;;;;;;0.00;0.00;;;;;;;;5042277;28;61876;-75
2022/12/22 06:00:59;;;;;;;;;1.00;0.00;;;;;;;;5042262;28;61675;-75
2022/12/22 06:03:25;;;;;;;;;0.00;0.00;;;;;;;;5042876;28;62001;-75
2022/12/22 06:05:50;;;;;;;;;0.00;0.00;;;;;;;;5041787;28;61897;-75
2022/12/22 06:08:15;;;;;;;;;1.00;0.00;;;;;;;;5042110;28;62313;-75
2022/12/22 06:10:41;;;;;;;;;0.00;0.00;;;;;;;;5040761;28;61802;-75
2022/12/22 06:13:06;;;;;;;;;0.00;0.00;;;;;;;;5041094;28;61849;-74
2022/12/22 06:15:31;;;;;;;;;0.00;0.00;;;;;;;;5041686;28;62020;-75
2022/12/22 06:17:56;;;;;;;;;0.00;0.00;;;;;;;;5041774;28;61760;-75
2022/12/22 06:20:22;;;;;;;;;0.00;0.00;;;;;;;;5042189;28;61806;-75
2022/12/22 06:22:47;;;;;;;;;0.00;0.00;;;;;;;;5041866;28;61805;-75
2022/12/22 06:25:12;;;;;;;;;0.00;0.00;;;;;;;;5041885;28;61882;-76
2022/12/22 06:27:37;;;;;;;;;0.00;0.00;;;;;;;;5040499;28;61939;-75
2022/12/22 06:30:03;;;;;;;;;0.75;0.00;;;;;;;;5041874;28;62007;-75
2022/12/22 06:32:29;;;;;;;;;0.00;0.00;;;;;;;;5042322;28;61888;-75
2022/12/22 06:34:54;;;;;;;;;0.00;0.00;;;;;;;;5041068;28;61770;-75
2022/12/22 06:37:19;;;;;;;;;0.00;0.00;;;;;;;;5042231;28;62008;-75
2022/12/22 06:39:44;;;;;;;;;0.00;0.00;;;;;;;;5040631;28;61901;-75
2022/12/22 06:44:54;;;;;;;;;0.00;0.00;;;;;;;;5040948;28;62217;-75
2022/12/22 06:47:20;;;;;;;;;0.00;0.00;;;;;;;;5040241;28;61897;-75
2022/12/22 06:49:45;;;;;;;;;0.00;0.00;;;;;;;;5041591;28;61714;-76
2022/12/22 06:52:10;;;;;;;;;0.50;0.00;;;;;;;;5040530;28;61793;-76
2022/12/22 06:54:35;;;;;;;;;0.00;0.00;;;;;;;;5040893;28;61789;-75
2022/12/22 06:57:01;;;;;;;;;0.00;0.00;;;;;;;;5039952;28;62052;-75
2022/12/22 06:59:26;;;;;;;;;0.00;0.00;;;;;;;;5040993;28;61854;-74
2022/12/22 07:01:51;;;;;;;;;0.00;0.00;;;;;;;;5040928;28;61982;-74
2022/12/22 07:04:19;;;;;;;;;0.25;0.00;;;;;;;;5040484;28;61922;-75
2022/12/22 07:06:45;;;;;;;;;1.00;0.00;;;;;;;;5043547;28;61913;-75
2022/12/22 07:09:10;;;;;;;;;1.00;1.00;;;;;;;;5042587;28;61782;-75
2022/12/22 07:11:35;;;;;;;;;1.25;0.00;;;;;;;;5042569;28;62413;-75
2022/12/22 07:14:00;;;;;;;;;1.50;1.50;;;;;;;;5043612;28;62544;-76
2022/12/22 07:16:26;;;;;;;;;1.00;0.50;;;;;;;;5044443;28;61804;-75
2022/12/22 07:18:51;;;;;;;;;0.00;0.00;;;;;;;;5044394;28;61792;-75
2022/12/22 07:21:16;;;;;;;;;1.00;0.25;;;;;;;;5045148;28;61674;-74
2022/12/22 07:23:42;;;;;;;;;1.50;0.75;;;;;;;;5044077;28;61790;-74
2022/12/22 07:26:09;;;;;;;;;2.00;1.00;;;;;;;;5044089;28;61783;-74
2022/12/22 07:28:36;;;;;;;;;7.50;2.25;;;;;;;;5044784;28;61807;-74
2022/12/22 07:31:01;;;;;;;;;2.25;1.00;;;;;;;;5044765;28;61751;-74
2022/12/22 07:33:27;;;;;;;;;5.00;1.75;;;;;;;;5044060;28;61880;-75
2022/12/22 07:36:04;;;;;;;;;7.00;3.00;;;;;;;;5044587;28;61921;-75
2022/12/22 07:38:31;;;;;;;;;3.75;2.00;;;;;;;;5042623;28;61731;-75
2022/12/22 07:40:57;;;;;;;;;4.50;4.25;;;;;;;;5042978;28;61797;-74
2022/12/22 07:43:23;;;;;;;;;4.00;2.50;;;;;;;;5038133;28;62700;-74
2022/12/22 07:45:48;;;;;;;;;7.75;4.25;;;;;;;;5044655;28;61931;-74
2022/12/22 07:51:00;;;;;;;;;9.50;2.00;;;;;;;;5044235;28;61811;-75
2022/12/22 07:53:26;;;;;;;;;4.25;2.00;;;;;;;;5043801;28;62229;-76
2022/12/22 07:55:51;;;;;;;;;5.50;2.25;;;;;;;;5044244;28;61835;-76
2022/12/22 07:58:16;;;;;;;;;2.50;2.00;;;;;;;;5044145;28;61722;-76
2022/12/22 08:00:41;;;;;;;;;5.00;1.00;;;;;;;;5044076;28;62138;-76
2022/12/22 08:03:08;;;;;;;;;4.50;4.50;;;;;;;;5043611;28;62772;-76
2022/12/22 08:05:36;;;;;;;;;10.75;6.00;;;;;;;;5043113;28;61812;-76
2022/12/22 08:08:01;;;;;;;;;6.00;4.00;;;;;;;;5044288;28;61777;-76
2022/12/22 08:10:26;;;;;;;;;7.00;3.50;;;;;;;;5043351;28;61830;-76
2022/12/22 08:12:51;;;;;;;;;8.75;6.00;;;;;;;;5043719;28;61890;-76
2022/12/22 08:15:17;;;;;;;;;5.25;3.00;;;;;;;;5042640;28;61922;-76
2022/12/22 08:17:42;;;;;;;;;8.50;2.50;;;;;;;;5043668;28;61933;-76
2022/12/22 08:20:07;;;;;;;;;10.25;6.50;;;;;;;;5043983;28;61948;-75
2022/12/22 08:22:33;;;;;;;;;5.00;4.50;;;;;;;;5043210;28;62294;-74
2022/12/22 08:24:58;;;;;;;;;7.00;4.00;;;;;;;;5043865;28;62036;-75
2022/12/22 08:27:26;;;;;;;;;9.75;3.00;;;;;;;;5042444;28;61917;-74
2022/12/22 08:29:54;;;;;;;;;6.75;2.00;;;;;;;;5043477;28;61968;-75
2022/12/22 08:32:19;;;;;;;;;5.25;3.75;;;;;;;;5043048;28;61810;-75
2022/12/22 08:34:45;;;;;;;;;9.00;4.75;;;;;;;;5043480;28;61758;-77
2022/12/22 08:37:13;;;;;;;;;7.75;4.75;;;;;;;;5043814;28;61855;-74
2022/12/22 08:39:40;;;;;;;;;7.00;6.25;;;;;;;;5043774;28;62045;-75
2022/12/22 08:42:08;;;;;;;;;7.50;3.25;;;;;;;;5043350;28;61841;-74
2022/12/22 08:44:35;;;;;;;;;13.25;10.50;;;;;;;;5043184;28;62110;-75
2022/12/22 08:47:00;;;;;;;;;7.25;3.25;;;;;;;;5043770;28;61765;-74
2022/12/22 08:49:26;;;;;;;;;13.00;7.75;;;;;;;;5043408;28;61915;-74
2022/12/22 08:51:52;;;;;;;;;10.50;7.25;;;;;;;;5042538;28;61743;-74
2022/12/22 08:54:17;;;;;;;;;10.25;5.25;;;;;;;;5043334;28;61723;-74
2022/12/22 08:56:42;;;;;;;;;9.25;5.25;;;;;;;;5043331;28;61787;-74
2022/12/22 08:59:08;;;;;;;;;8.25;7.00;;;;;;;;5043157;28;61830;-80
2022/12/22 09:01:37;;;;;;;;;14.50;3.75;;;;;;;;5040846;28;63939;-74
2022/12/22 09:04:03;;;;;;;;;9.25;3.50;;;;;;;;5042156;28;61951;-75
2022/12/22 09:06:29;;;;;;;;;7.75;6.00;;;;;;;;5042326;28;61779;-74
2022/12/22 09:08:58;;;;;;;;;9.50;3.25;;;;;;;;5042312;28;61873;-74
2022/12/22 09:11:24;;;;;;;;;11.50;6.00;;;;;;;;5042264;28;62851;-74
2022/12/22 09:13:50;;;;;;;;;18.50;5.25;;;;;;;;5042449;28;61926;-74
2022/12/22 09:16:16;;;;;;;;;7.75;6.00;;;;;;;;5042880;28;61830;-74
2022/12/22 09:18:41;;;;;;;;;9.75;4.75;;;;;;;;5042635;28;61844;-74
2022/12/22 09:21:06;;;;;;;;;10.00;4.00;;;;;;;;5042369;28;62643;-74
2022/12/22 09:23:32;;;;;;;;;8.50;4.50;;;;;;;;5042604;28;62037;-74
2022/12/22 09:25:57;;;;;;;;;4.25;3.25;;;;;;;;5043578;28;61908;-74
2022/12/22 09:28:22;;;;;;;;;6.00;3.50;;;;;;;;5043435;28;61857;-74
2022/12/22 09:30:48;;;;;;;;;12.00;4.00;;;;;;;;5042355;28;62027;-74
2022/12/22 09:33:13;;;;;;;;;7.75;5.00;;;;;;;;5043094;28;61802;-74
2022/12/22 09:35:42;;;;;;;;;7.00;3.25;;;;;;;;5042776;28;61794;-74
2022/12/22 09:38:07;;;;;;;;;10.50;4.00;;;;;;;;5043087;28;61732;-74
2022/12/22 09:40:32;;;;;;;;;11.00;3.00;;;;;;;;5042339;28;63063;-74
2022/12/22 09:42:58;;;;;;;;;9.50;7.75;;;;;;;;5041371;28;61969;-74
2022/12/22 09:45:23;;;;;;;;;11.00;6.00;;;;;;;;5042926;28;62028;-74
2022/12/22 09:47:52;;;;;;;;;6.00;5.75;;;;;;;;5041632;28;61765;-74
2022/12/22 09:50:22;;;;;;;;;8.00;3.00;;;;;;;;5042107;28;61746;-74
2022/12/22 09:52:50;;;;;;;;;4.00;2.00;;;;;;;;5042678;28;61777;-74
2022/12/22 09:55:25;;;;;;;;;6.50;4.50;;;;;;;;5042800;28;61926;-74
2022/12/22 09:57:54;;;;;;;;;9.50;6.00;;;;;;;;5042956;28;61937;-74
2022/12/22 10:00:21;;;;;;;;;11.75;7.00;;;;;;;;5041935;28;61699;-74
2022/12/22 10:03:05;;;;;;;;;4.50;3.75;;;;;;;;5042507;28;61743;-74
2022/12/22 10:05:47;;;;;;;;;13.50;5.75;;;;;;;;5042341;28;61884;-74
2022/12/22 10:08:15;;;;;;;;;5.75;4.00;;;;;;;;5042491;28;61848;-74
2022/12/22 10:10:40;;;;;;;;;7.75;3.00;;;;;;;;5041606;28;61694;-74
2022/12/22 10:13:06;;;;;;;;;7.25;3.50;;;;;;;;5041144;28;61718;-74
2022/12/22 10:15:35;;;;;;;;;6.25;4.75;;;;;;;;5042370;28;61788;-74
2022/12/22 10:18:12;;;;;;;;;19.75;3.50;;;;;;;;5042659;28;61999;-74
2022/12/22 10:20:38;;;;;;;;;13.00;7.50;;;;;;;;5039779;28;63771;-74
2022/12/22 10:23:13;;;;;;;;;10.25;7.00;;;;;;;;5041924;28;61784;-74
2022/12/22 10:25:41;;;;;;;;;7.75;3.75;;;;;;;;5042172;28;61730;-74
2022/12/22 10:28:16;;;;;;;;;10.00;5.75;;;;;;;;5042551;28;62016;-74
2022/12/22 10:30:42;;;;;;;;;9.50;5.00;;;;;;;;5041461;28;61741;-74
2022/12/22 10:33:17;;;;;;;;;8.75;5.75;;;;;;;;5042282;28;61679;-74
2022/12/22 10:35:44;;;;;;;;;8.75;4.75;;;;;;;;5040659;28;61805;-74
2022/12/22 10:38:25;;;;;;;;;14.75;4.50;;;;;;;;5042448;28;61970;-74
2022/12/22 10:40:55;;;;;;;;;13.50;8.75;;;;;;;;5042684;28;63724;-74
2022/12/22 10:43:26;;;;;;;;;7.75;4.50;;;;;;;;5045704;28;61903;-74
2022/12/22 10:45:53;;;;;;;;;9.00;5.25;;;;;;;;5045571;28;61933;-74
2022/12/22 10:48:24;;;;;;;;;10.50;7.75;;;;;;;;5045745;28;62382;-74
2022/12/22 10:50:49;;;;;;;;;13.75;5.50;;;;;;;;5044663;28;62829;-74
2022/12/22 10:53:14;;;;;;;;;7.50;4.00;;;;;;;;5045548;28;61897;-74
2022/12/22 10:55:40;;;;;;;;;6.25;4.75;;;;;;;;5045196;28;61890;-75
2022/12/22 10:58:08;;;;;;;;;8.00;3.75;;;;;;;;5045957;28;61841;-74
2022/12/22 11:00:33;;;;;;;;;8.00;5.50;;;;;;;;5044727;28;61986;-74
2022/12/22 11:03:00;;;;;;;;;16.00;7.75;;;;;;;;5043456;28;62070;-74
2022/12/22 11:05:25;;;;;;;;;7.50;3.00;;;;;;;;5045443;28;62004;-74
2022/12/22 11:07:52;;;;;;;;;12.50;5.25;;;;;;;;5044984;28;61703;-74
2022/12/22 11:10:32;;;;;;;;;9.50;3.00;;;;;;;;5044575;28;61720;-74
2022/12/22 11:13:01;;;;;;;;;11.50;8.75;;;;;;;;5044916;28;61889;-74
2022/12/22 11:15:36;;;;;;;;;13.25;5.75;;;;;;;;5043762;28;61939;-75
2022/12/22 11:18:20;;;;;;;;;8.75;4.00;;;;;;;;5043636;28;61967;-74
2022/12/22 11:21:00;;;;;;;;;8.50;3.50;;;;;;;;5044191;28;63174;-75
2022/12/22 11:23:41;;;;;;;;;9.25;5.75;;;;;;;;5044855;28;61749;-74
2022/12/22 11:26:10;;;;;;;;;7.25;5.00;;;;;;;;5045070;28;61719;-74
2022/12/22 11:28:44;;;;;;;;;9.00;1.00;;;;;;;;5045383;28;62024;-75
2022/12/22 11:31:21;;;;;;;;;5.50;3.75;;;;;;;;5044269;28;61881;-74
2022/12/22 11:33:52;;;;;;;;;11.00;3.00;;;;;;;;5044427;28;61900;-74
2022/12/22 11:36:25;;;;;;;;;12.25;6.75;;;;;;;;5044727;28;61908;-74
2022/12/22 11:39:06;;;;;;;;;5.50;2.75;;;;;;;;5044924;28;61860;-74
2022/12/22 11:41:31;;;;;;;;;8.25;6.50;;;;;;;;5044415;28;61837;-74
2022/12/22 11:44:00;;;;;;;;;8.50;4.75;;;;;;;;5044419;28;61758;-74
2022/12/22 11:46:45;;;;;;;;;5.50;3.75;;;;;;;;5043331;28;61875;-74
2022/12/22 11:49:10;;;;;;;;;7.00;3.50;;;;;;;;5044622;28;61817;-74
2022/12/22 11:51:38;;;;;;;;;9.50;4.00;;;;;;;;5043067;28;62755;-74
2022/12/22 11:54:22;;;;;;;;;8.25;5.00;;;;;;;;5044170;28;61836;-74
2022/12/22 11:56:53;;;;;;;;;7.75;5.75;;;;;;;;5044405;28;61805;-74
2022/12/22 11:59:41;;;;;;;;;8.25;4.00;;;;;;;;5044780;28;61777;-75
2022/12/22 12:02:20;;;;;;;;;9.25;7.50;;;;;;;;5043422;28;61674;-75
2022/12/22 12:05:00;;;;;;;;;8.50;3.25;;;;;;;;5044321;28;61917;-74
2022/12/22 12:07:34;;;;;;;;;7.75;5.00;;;;;;;;5044341;28;61786;-75
2022/12/22 12:10:05;;;;;;;;;8.00;3.50;;;;;;;;5042958;28;61789;-74
2022/12/22 12:12:49;;;;;;;;;8.75;4.00;;;;;;;;5043765;28;62799;-74
2022/12/22 12:15:14;;;;;;;;;13.00;5.00;;;;;;;;5044176;28;61934;-74
2022/12/22 12:17:49;;;;;;;;;12.25;5.00;;;;;;;;5044037;28;61918;-74
2022/12/22 12:20:14;;;;;;;;;7.25;4.00;;;;;;;;5044074;28;61857;-74
2022/12/22 12:22:56;;;;;;;;;6.75;6.50;;;;;;;;5043568;28;61930;-74
2022/12/22 12:25:27;;;;;;;;;10.25;6.25;;;;;;;;5044226;28;61894;-74
2022/12/22 12:27:52;;;;;;;;;6.75;4.75;;;;;;;;5044325;28;61896;-74
2022/12/22 12:30:19;;;;;;;;;8.25;5.50;;;;;;;;5043742;28;61658;-74
2022/12/22 12:32:49;;;;;;;;;10.25;5.00;;;;;;;;5043430;28;62751;-74
2022/12/22 12:35:20;;;;;;;;;14.00;7.00;;;;;;;;5044025;28;61938;-74
2022/12/22 12:37:49;;;;;;;;;6.50;3.75;;;;;;;;5043945;28;61944;-74
2022/12/22 12:40:26;;;;;;;;;8.00;4.50;;;;;;;;5043931;28;61743;-74
2022/12/22 12:42:52;;;;;;;;;5.75;3.00;;;;;;;;5043206;28;61881;-74
2022/12/22 12:45:33;;;;;;;;;6.25;4.25;;;;;;;;5043456;28;61750;-74
2022/12/22 12:48:17;;;;;;;;;4.25;3.50;;;;;;;;5042348;28;61935;-74
2022/12/22 12:50:43;;;;;;;;;11.25;7.00;;;;;;;;5043732;28;61871;-74
2022/12/22 12:53:09;;;;;;;;;10.25;5.00;;;;;;;;5042936;28;62820;-74
2022/12/22 12:55:37;;;;;;;;;4.50;3.75;;;;;;;;5043747;28;62039;-74
2022/12/22 12:58:03;;;;;;;;;8.75;4.50;;;;;;;;5043519;28;61877;-74
2022/12/22 13:00:31;;;;;;;;;15.25;4.25;;;;;;;;5043454;28;61664;-74
2022/12/22 13:03:17;;;;;;;;;5.00;4.75;;;;;;;;5041160;28;64732;-74
2022/12/22 13:05:51;;;;;;;;;11.00;4.00;;;;;;;;5035686;28;61953;-74
2022/12/22 13:08:18;;;;;;;;;17.00;4.50;;;;;;;;5043266;28;61850;-74
2022/12/22 13:10:44;;;;;;;;;5.75;4.00;;;;;;;;5043448;28;62157;-74
2022/12/22 13:13:10;;;;;;;;;7.50;4.50;;;;;;;;5042512;28;61901;-74
2022/12/22 13:15:37;;;;;;;;;6.75;4.75;;;;;;;;5041801;28;61994;-74
2022/12/22 13:18:08;;;;;;;;;11.75;5.00;;;;;;;;5042020;28;61917;-74
2022/12/22 13:20:34;;;;;;;;;10.00;5.75;;;;;;;;5043211;28;61652;-74
2022/12/22 13:23:01;;;;;;;;;5.50;5.50;;;;;;;;5042391;28;61838;-74
2022/12/22 13:25:40;;;;;;;;;8.25;2.75;;;;;;;;5043227;28;61851;-74
2022/12/22 13:28:10;;;;;;;;;7.25;2.25;;;;;;;;5041461;28;61964;-74
2022/12/22 13:30:36;;;;;;;;;8.00;4.00;;;;;;;;5043432;28;61678;-74
2022/12/22 13:33:01;;;;;;;;;12.75;5.50;;;;;;;;5041003;28;63832;-74
2022/12/22 13:35:31;;;;;;;;;6.00;2.75;;;;;;;;5041566;28;61837;-74
2022/12/22 13:37:57;;;;;;;;;6.00;3.50;;;;;;;;5043351;28;61732;-74
2022/12/22 13:40:24;;;;;;;;;10.25;4.00;;;;;;;;5043098;28;62603;-74
2022/12/22 13:42:50;;;;;;;;;8.50;4.00;;;;;;;;5042090;28;62754;-74
2022/12/22 13:45:19;;;;;;;;;2.25;2.25;;;;;;;;5042641;28;61814;-74
2022/12/22 13:47:45;;;;;;;;;5.25;3.50;;;;;;;;5042823;28;61719;-74
2022/12/22 13:50:18;;;;;;;;;8.75;4.75;;;;;;;;5042536;28;61826;-74
2022/12/22 13:52:44;;;;;;;;;10.25;3.50;;;;;;;;5042040;28;61948;-74
2022/12/22 13:55:12;;;;;;;;;5.00;3.00;;;;;;;;5042977;28;61782;-74
2022/12/22 13:57:38;;;;;;;;;10.00;4.25;;;;;;;;5042716;28;61901;-74
2022/12/22 14:00:03;;;;;;;;;9.50;6.00;;;;;;;;5041311;28;61911;-74
2022/12/22 14:02:31;;;;;;;;;9.00;3.00;;;;;;;;5041924;28;61856;-74
2022/12/22 14:05:10;;;;;;;;;9.75;5.75;;;;;;;;5041406;28;61793;-74
2022/12/22 14:07:35;;;;;;;;;6.50;5.00;;;;;;;;5042654;28;62156;-74
2022/12/22 14:10:00;;;;;;;;;14.25;5.00;;;;;;;;5042734;28;61873;-74
2022/12/22 14:12:29;;;;;;;;;11.25;5.25;;;;;;;;5041426;28;62655;-74
2022/12/22 14:14:55;;;;;;;;;12.50;6.00;;;;;;;;5041435;28;61694;-74
2022/12/22 14:17:22;;;;;;;;;14.75;3.00;;;;;;;;5042426;28;61855;-74
2022/12/22 14:19:51;;;;;;;;;9.25;6.25;;;;;;;;5042599;28;61714;-74
2022/12/22 14:22:25;;;;;;;;;7.50;3.50;;;;;;;;5041544;28;61832;-74
2022/12/22 14:24:55;;;;;;;;;5.00;3.50;;;;;;;;5042270;28;62567;-74
2022/12/22 14:27:42;;;;;;;;;10.75;4.00;;;;;;;;5042100;28;61731;-74
2022/12/22 14:30:21;;;;;;;;;7.25;3.75;;;;;;;;5040923;28;61950;-74
2022/12/22 14:32:48;;;;;;;;;4.25;2.00;;;;;;;;5041815;28;61948;-74
2022/12/22 14:35:19;;;;;;;;;5.00;3.00;;;;;;;;5042337;28;61816;-74
2022/12/22 14:37:48;;;;;;;;;13.25;5.50;;;;;;;;5042185;28;61972;-74
2022/12/22 14:40:33;;;;;;;;;11.75;3.00;;;;;;;;5042277;28;61728;-74
2022/12/22 14:43:00;;;;;;;;;2.75;2.25;;;;;;;;5039601;28;64130;-74
2022/12/22 14:45:26;;;;;;;;;7.00;2.00;;;;;;;;5041690;28;62012;-74
2022/12/22 14:47:52;;;;;;;;;3.75;2.00;;;;;;;;5042281;28;61666;-74
2022/12/22 14:50:28;;;;;;;;;9.00;5.00;;;;;;;;5041994;28;62167;-74
2022/12/22 14:52:57;;;;;;;;;4.50;2.50;;;;;;;;5041502;28;61786;-74
2022/12/22 14:55:27;;;;;;;;;3.00;3.00;;;;;;;;5041421;28;61810;-74
2022/12/22 14:57:58;;;;;;;;;7.25;2.00;;;;;;;;5042207;28;61869;-74
2022/12/22 15:00:23;;;;;;;;;4.75;3.00;;;;;;;;5042040;28;61904;-74
2022/12/22 15:02:52;;;;;;;;;5.50;3.00;;;;;;;;5041506;28;61800;-74
2022/12/22 15:05:26;;;;;;;;;2.00;2.00;;;;;;;;5041917;28;61837;-74
2022/12/22 15:07:53;;;;;;;;;4.25;4.25;;;;;;;;5040638;28;61710;-74
2022/12/22 15:10:18;;;;;;;;;4.50;3.00;;;;;;;;5041475;28;61844;-74
2022/12/22 15:12:45;;;;;;;;;8.25;3.75;;;;;;;;5039733;28;64722;-74
2022/12/22 15:15:14;;;;;;;;;4.00;2.25;;;;;;;;5041937;28;61715;-74
2022/12/22 15:17:42;;;;;;;;;11.50;3.50;;;;;;;;5040258;28;61785;-74
2022/12/22 15:20:15;;;;;;;;;15.25;5.00;;;;;;;;5041552;28;61794;-74
2022/12/22 15:22:41;;;;;;;;;2.00;2.00;;;;;;;;5040919;28;62570;-74
2022/12/22 15:25:19;;;;;;;;;6.25;3.00;;;;;;;;5041379;28;61878;-74
2022/12/22 15:27:45;;;;;;;;;3.00;3.00;;;;;;;;5044801;28;61810;-74
2022/12/22 15:30:12;;;;;;;;;5.00;1.75;;;;;;;;5043773;28;62016;-74
2022/12/22 15:32:38;;;;;;;;;4.50;3.00;;;;;;;;5043009;28;64134;-74
2022/12/22 15:35:10;;;;;;;;;5.75;3.00;;;;;;;;5043515;28;61831;-74
2022/12/22 15:37:35;;;;;;;;;9.00;4.00;;;;;;;;5043395;28;61783;-74
2022/12/22 15:40:00;;;;;;;;;4.50;2.50;;;;;;;;5044753;28;61906;-74
2022/12/22 15:42:26;;;;;;;;;7.25;3.00;;;;;;;;5042952;28;63572;-74
2022/12/22 15:44:51;;;;;;;;;7.00;3.00;;;;;;;;5044455;28;61983;-74
2022/12/22 15:47:17;;;;;;;;;6.00;4.00;;;;;;;;5045043;28;61918;-74
2022/12/22 15:49:43;;;;;;;;;5.00;1.00;;;;;;;;5044640;28;62121;-74
2022/12/22 15:52:11;;;;;;;;;3.00;2.00;;;;;;;;5044050;28;61936;-74
2022/12/22 15:54:37;;;;;;;;;4.00;2.00;;;;;;;;5044422;28;61911;-74
2022/12/22 15:57:02;;;;;;;;;5.25;2.00;;;;;;;;5044596;28;61912;-74
2022/12/22 15:59:28;;;;;;;;;3.00;1.50;;;;;;;;5043338;28;62020;-74
2022/12/22 16:01:56;;;;;;;;;6.75;3.00;;;;;;;;5042668;28;64746;-74
2022/12/22 16:04:22;;;;;;;;;2.75;1.75;;;;;;;;5044591;28;61849;-74
2022/12/22 16:06:49;;;;;;;;;3.00;1.25;;;;;;;;5044323;28;61830;-74
2022/12/22 16:09:37;;;;;;;;;3.25;1.75;;;;;;;;5044341;28;61722;-74
2022/12/22 16:12:09;;;;;;;;;2.00;2.00;;;;;;;;5043676;28;61910;-74
2022/12/22 16:14:35;;;;;;;;;5.25;2.25;;;;;;;;5044129;28;61894;-74
2022/12/22 16:17:00;;;;;;;;;5.00;2.50;;;;;;;;5044381;28;61731;-74
2022/12/22 16:19:26;;;;;;;;;1.50;1.50;;;;;;;;5044192;28;62061;-74
2022/12/22 16:21:52;;;;;;;;;1.25;1.25;;;;;;;;5041921;28;63601;-74
2022/12/22 16:24:20;;;;;;;;;2.00;1.00;;;;;;;;5043977;28;61684;-74
2022/12/22 16:26:45;;;;;;;;;1.00;1.00;;;;;;;;5044138;28;62215;-74
2022/12/22 16:29:14;;;;;;;;;4.00;1.75;;;;;;;;5042764;28;62169;-74
2022/12/22 16:31:39;;;;;;;;;2.50;1.25;;;;;;;;5043489;28;62711;-74
2022/12/22 16:34:04;;;;;;;;;6.00;2.25;;;;;;;;5043713;28;62084;-74
2022/12/22 16:36:29;;;;;;;;;2.00;1.00;;;;;;;;5043893;28;61830;-74
2022/12/22 16:38:55;;;;;;;;;1.25;1.00;;;;;;;;5043448;28;62184;-74
2022/12/22 16:41:24;;;;;;;;;3.00;0.00;;;;;;;;5042178;28;63629;-74
2022/12/22 16:43:51;;;;;;;;;1.75;1.00;;;;;;;;5042518;28;61749;-74
2022/12/22 16:46:18;;;;;;;;;0.00;0.00;;;;;;;;5043797;28;61854;-74
2022/12/22 16:48:45;;;;;;;;;0.00;0.00;;;;;;;;5043446;28;61814;-74
2022/12/22 16:51:15;;;;;;;;;0.00;0.00;;;;;;;;5043067;28;61777;-74
2022/12/22 16:53:40;;;;;;;;;2.00;0.25;;;;;;;;5043415;28;61884;-74
2022/12/22 16:56:10;;;;;;;;;0.75;0.00;;;;;;;;5043511;28;61790;-74
2022/12/22 16:58:35;;;;;;;;;0.75;0.25;;;;;;;;5043706;28;61898;-74
2022/12/22 17:01:00;;;;;;;;;0.00;0.00;;;;;;;;5041500;28;64865;-74
2022/12/22 17:03:27;;;;;;;;;0.00;0.00;;;;;;;;5043578;28;61820;-74
2022/12/22 17:05:54;;;;;;;;;0.25;0.25;;;;;;;;5043437;28;61678;-74
2022/12/22 17:08:20;;;;;;;;;0.25;0.00;;;;;;;;5043325;28;61893;-74
2022/12/22 17:10:45;;;;;;;;;0.75;0.75;;;;;;;;5042674;28;62079;-74
2022/12/22 17:13:10;;;;;;;;;1.50;0.25;;;;;;;;5043489;28;61945;-74
2022/12/22 17:15:36;;;;;;;;;0.75;0.75;;;;;;;;5043466;28;61739;-73
2022/12/22 17:18:02;;;;;;;;;1.00;1.00;;;;;;;;5043516;28;61816;-74
2022/12/22 17:20:28;;;;;;;;;0.00;0.00;;;;;;;;5042350;28;61914;-74
2022/12/22 17:22:58;;;;;;;;;1.75;0.00;;;;;;;;5042638;28;61828;-74
2022/12/22 17:25:24;;;;;;;;;0.00;0.00;;;;;;;;5043317;28;61823;-74
2022/12/22 17:27:50;;;;;;;;;0.25;0.25;;;;;;;;5043412;28;61763;-74
2022/12/22 17:30:15;;;;;;;;;0.00;0.00;;;;;;;;5041109;28;63784;-74
2022/12/22 17:32:41;;;;;;;;;0.25;0.25;;;;;;;;5042771;28;61811;-74
2022/12/22 17:35:10;;;;;;;;;1.00;0.00;;;;;;;;5043141;28;61832;-74
2022/12/22 17:37:36;;;;;;;;;2.00;0.00;;;;;;;;5043283;28;61763;-74
2022/12/22 17:40:01;;;;;;;;;0.00;0.00;;;;;;;;5042305;28;61715;-74
2022/12/22 17:42:26;;;;;;;;;1.00;1.00;;;;;;;;5041659;28;61913;-74
2022/12/22 17:44:52;;;;;;;;;2.00;2.00;;;;;;;;5041379;28;61876;-74
2022/12/22 17:47:20;;;;;;;;;0.00;0.00;;;;;;;;5043411;28;61730;-74
2022/12/22 17:49:45;;;;;;;;;1.00;1.00;;;;;;;;5040780;28;61755;-74
2022/12/22 17:52:21;;;;;;;;;1.50;1.50;;;;;;;;5042779;28;62352;-74
2022/12/22 17:54:48;;;;;;;;;3.00;1.00;;;;;;;;5042816;28;61859;-74
2022/12/22 17:57:33;;;;;;;;;0.00;0.00;;;;;;;;5043284;28;61805;-74
2022/12/22 17:59:59;;;;;;;;;0.00;0.00;;;;;;;;5040125;28;63922;-74
2022/12/22 18:02:24;;;;;;;;;1.75;1.00;;;;;;;;5042569;28;61741;-74
2022/12/22 18:04:50;;;;;;;;;0.00;0.00;;;;;;;;5041038;28;62424;-74
2022/12/22 18:07:17;;;;;;;;;0.00;0.00;;;;;;;;5041468;28;61824;-74
2022/12/22 18:09:43;;;;;;;;;0.00;0.00;;;;;;;;5041993;28;61959;-74
2022/12/22 18:12:14;;;;;;;;;0.75;0.00;;;;;;;;5042377;28;61932;-74
2022/12/22 18:14:39;;;;;;;;;0.00;0.00;;;;;;;;5042490;28;61972;-74
2022/12/22 18:17:04;;;;;;;;;0.00;0.00;;;;;;;;5042267;28;61855;-74
2022/12/22 18:19:30;;;;;;;;;0.00;0.00;;;;;;;;5034084;28;62615;-74
2022/12/22 18:21:55;;;;;;;;;2.00;1.50;;;;;;;;5021030;28;61833;-75